Time;durP1;ratioP1;P1;durP2;ratioP2;P2;SDS_P1;SDS_P2;PMS_P1;PMS_P2;Temp;Humidity;BMP_temperature;BMP_pressure;BME280_temperature;BME280_humidity;BME280_pressure;Samples;Min_cycle;Max_cycle;Signal;HPM_P1;HPM_P2
2021/11/18 00:00:12;;;;;;;11.93;8.73;;;;;;;3.31;100.00;96859.06;1034519;28;20068;-67
2021/11/18 00:00:43;;;;;;;13.70;8.63;;;;;;;3.24;100.00;96845.25;1029625;28;20026;-68
2021/11/18 00:01:15;;;;;;;12.13;8.68;;;;;;;3.35;100.00;96854.28;1022494;29;20283;-66
2021/11/18 00:01:51;;;;;;;12.50;8.57;;;;;;;3.32;100.00;96857.28;1018275;29;20019;-66
2021/11/18 00:02:22;;;;;;;12.20;8.57;;;;;;;3.33;100.00;96861.47;1017094;29;20285;-69
2021/11/18 00:02:52;;;;;;;13.43;8.98;;;;;;;3.33;100.00;96856.28;1019645;29;20781;-68
2021/11/18 00:03:23;;;;;;;13.25;8.88;;;;;;;3.34;100.00;96862.28;1016482;29;20030;-69
2021/11/18 00:03:54;;;;;;;13.23;9.15;;;;;;;3.33;100.00;96858.09;1021786;28;20019;-65
2021/11/18 00:04:24;;;;;;;11.82;8.40;;;;;;;3.33;100.00;96866.66;1025491;28;20632;-68
2021/11/18 00:05:25;;;;;;;13.93;9.25;;;;;;;3.30;100.00;96854.88;1060249;23;20058;-66
2021/11/18 00:05:57;;;;;;;13.02;8.70;;;;;;;3.36;100.00;96863.69;1028412;28;20073;-66
2021/11/18 00:06:27;;;;;;;15.00;9.80;;;;;;;3.37;100.00;96860.09;1022425;28;20063;-65
2021/11/18 00:06:58;;;;;;;12.55;8.57;;;;;;;3.34;100.00;96863.06;1030591;28;20265;-66
2021/11/18 00:07:29;;;;;;;11.48;8.63;;;;;;;3.31;100.00;96863.44;1030500;28;20034;-66
2021/11/18 00:08:00;;;;;;;12.00;8.38;;;;;;;3.23;100.00;96845.44;1030922;28;20471;-67
2021/11/18 00:08:30;;;;;;;11.32;7.75;;;;;;;3.35;100.00;96862.06;1026765;28;20277;-66
2021/11/18 00:09:01;;;;;;;11.77;8.98;;;;;;;3.25;100.00;96848.63;1034510;28;20117;-66
2021/11/18 00:09:31;;;;;;;13.20;8.95;;;;;;;3.30;100.00;96854.06;1028689;28;20474;-66
2021/11/18 00:10:02;;;;;;;13.60;8.80;;;;;;;3.31;100.00;96858.25;1026705;28;20042;-66
2021/11/18 00:10:36;;;;;;;15.52;8.98;;;;;;;3.30;100.00;96861.84;1028136;28;20034;-67
2021/11/18 00:11:07;;;;;;;13.63;8.57;;;;;;;3.15;100.00;96837.78;1028060;28;20274;-67
2021/11/18 00:11:38;;;;;;;12.00;9.13;;;;;;;3.29;100.00;96855.06;1026917;28;20280;-66
2021/11/18 00:12:10;;;;;;;13.23;9.18;;;;;;;3.34;100.00;96862.28;1030308;28;20280;-69
2021/11/18 00:12:41;;;;;;;15.20;8.70;;;;;;;3.24;100.00;96850.44;1027617;28;20029;-67
2021/11/18 00:13:13;;;;;;;11.45;8.77;;;;;;;3.29;100.00;96868.03;1026838;28;20337;-68
2021/11/18 00:13:45;;;;;;;13.65;8.77;;;;;;;3.31;100.00;96858.25;1022893;29;20758;-66
2021/11/18 00:14:17;;;;;;;11.35;8.55;;;;;;;3.23;100.00;96846.25;1023785;28;20270;-66
2021/11/18 00:14:47;;;;;;;14.77;8.82;;;;;;;3.32;100.00;96865.06;1026634;28;20262;-66
2021/11/18 00:15:18;;;;;;;13.50;9.15;;;;;;;3.32;100.00;96859.88;1029511;28;20277;-66
2021/11/18 00:15:49;;;;;;;12.02;8.75;;;;;;;3.24;100.00;96847.84;1026620;28;20031;-66
2021/11/18 00:16:19;;;;;;;15.52;9.80;;;;;;;3.31;100.00;96855.66;1022589;28;20023;-67
2021/11/18 00:16:50;;;;;;;13.63;9.02;;;;;;;3.25;100.00;96843.44;1022306;28;20414;-66
2021/11/18 00:17:20;;;;;;;15.85;9.13;;;;;;;3.23;100.00;96845.44;1022581;28;20039;-66
2021/11/18 00:17:51;;;;;;;14.63;8.90;;;;;;;3.28;100.00;96848.25;1030170;28;20098;-67
2021/11/18 00:18:23;;;;;;;13.43;8.88;;;;;;;3.28;100.00;96848.25;1029989;28;20049;-66
2021/11/18 00:18:54;;;;;;;12.55;8.73;;;;;;;3.23;100.00;96848.03;1026638;28;20023;-67
2021/11/18 00:19:24;;;;;;;11.93;8.55;;;;;;;3.27;100.00;96852.66;1030178;28;20262;-67
2021/11/18 00:19:54;;;;;;;12.75;8.43;;;;;;;3.27;100.00;96850.06;1030120;28;20015;-66
2021/11/18 00:20:29;;;;;;;12.98;8.93;;;;;;;3.27;100.00;96850.06;1026537;28;20034;-66
2021/11/18 00:21:03;;;;;;;13.25;9.38;;;;;;;3.26;100.00;96855.44;1022881;28;20055;-66
2021/11/18 00:21:36;;;;;;;13.20;8.95;;;;;;;3.26;100.00;96850.25;1022505;29;20387;-67
2021/11/18 00:22:06;;;;;;;15.18;9.27;;;;;;;3.27;100.00;96857.03;1025941;28;20270;-66
2021/11/18 00:22:36;;;;;;;12.80;8.85;;;;;;;3.28;100.00;96856.03;1027610;28;20270;-65
2021/11/18 00:23:07;;;;;;;12.25;8.35;;;;;;;3.18;100.00;96846.00;1031086;28;20030;-67
2021/11/18 00:23:40;;;;;;;13.13;8.95;;;;;;;3.24;100.00;96847.84;1026464;28;20019;-67
2021/11/18 00:24:12;;;;;;;11.25;8.05;;;;;;;3.24;100.00;96844.44;1018647;29;20039;-67
2021/11/18 00:24:42;;;;;;;12.13;9.10;;;;;;;3.32;100.00;96854.69;1020744;29;20785;-66
2021/11/18 00:25:13;;;;;;;12.10;8.32;;;;;;;3.13;100.00;96829.41;1026368;28;20330;-66
2021/11/18 00:25:43;;;;;;;13.07;8.55;;;;;;;3.29;100.00;96855.06;1018795;29;20472;-67
2021/11/18 00:26:14;;;;;;;11.90;8.95;;;;;;;3.28;100.00;96854.25;1024309;28;20022;-66
2021/11/18 00:26:45;;;;;;;12.23;9.15;;;;;;;3.30;100.00;96859.25;1030489;28;20080;-66
2021/11/18 00:27:15;;;;;;;12.85;8.27;;;;;;;3.23;100.00;96845.44;1030649;28;20023;-67
2021/11/18 00:27:46;;;;;;;11.55;8.40;;;;;;;3.28;100.00;96853.44;1021703;28;20026;-66
2021/11/18 00:28:16;;;;;;;15.10;9.13;;;;;;;3.26;100.00;96850.25;1018541;28;20030;-67
2021/11/18 00:28:47;;;;;;;11.13;8.55;;;;;;;3.27;100.00;96857.03;1018814;29;20019;-67
2021/11/18 00:29:17;;;;;;;11.82;8.23;;;;;;;3.32;100.00;96849.50;1014572;29;20030;-66
2021/11/18 00:29:48;;;;;;;12.43;8.55;;;;;;;3.32;100.00;96854.69;1014225;29;20024;-66
2021/11/18 00:30:18;;;;;;;13.07;8.55;;;;;;;3.28;100.00;96850.84;1026214;28;20082;-67
2021/11/18 00:30:49;;;;;;;11.48;7.95;;;;;;;3.30;100.00;96856.66;1030404;28;20446;-67
2021/11/18 00:31:22;;;;;;;11.57;8.45;;;;;;;3.30;100.00;96856.66;1022767;29;20470;-66
2021/11/18 00:31:52;;;;;;;12.23;8.18;;;;;;;3.28;100.00;96854.25;1024359;28;20493;-64
2021/11/18 00:32:22;;;;;;;12.98;9.13;;;;;;;3.30;100.00;96852.28;1022458;29;20259;-67
2021/11/18 00:32:53;;;;;;;12.90;9.02;;;;;;;3.21;100.00;96845.63;1023123;28;20031;-67
2021/11/18 00:33:25;;;;;;;13.07;8.27;;;;;;;3.29;100.00;96857.66;1028392;28;20034;-66
2021/11/18 00:33:56;;;;;;;12.23;8.18;;;;;;;3.25;100.00;96849.47;1022751;28;20023;-67
2021/11/18 00:34:26;;;;;;;12.27;8.50;;;;;;;3.30;100.00;96857.47;1026521;28;20278;-66
2021/11/18 00:34:56;;;;;;;13.10;9.48;;;;;;;3.30;100.00;96860.06;1026328;28;20027;-66
2021/11/18 00:35:28;;;;;;;11.50;8.32;;;;;;;3.29;100.00;96857.66;1027033;28;20018;-67
2021/11/18 00:35:58;;;;;;;11.18;7.85;;;;;;;3.29;100.00;96855.88;1026292;28;20057;-67
2021/11/18 00:36:28;;;;;;;12.88;8.60;;;;;;;3.29;100.00;96852.47;1022653;28;20347;-66
2021/11/18 00:36:59;;;;;;;12.90;8.55;;;;;;;3.34;100.00;96859.69;1022546;28;20050;-66
2021/11/18 00:37:29;;;;;;;12.32;8.77;;;;;;;3.35;100.00;96856.88;1026514;28;20035;-66
2021/11/18 00:38:00;;;;;;;10.70;7.45;;;;;;;3.35;100.00;96859.47;1026520;28;20023;-67
2021/11/18 00:38:30;;;;;;;10.18;7.57;;;;;;;3.35;100.00;96858.69;1024621;28;20562;-67
2021/11/18 08:02:44;;;;;;;15.75;10.48;;;;;;;3.95;100.00;97115.09;1034264;28;20832;-77
2021/11/18 08:03:15;;;;;;;17.67;12.02;;;;;;;3.63;100.00;97051.53;1032063;28;20304;-82
2021/11/18 08:03:46;;;;;;;20.67;13.10;;;;;;;3.76;100.00;97063.81;1035546;28;20289;-82
2021/11/18 08:04:16;;;;;;;17.15;11.75;;;;;;;4.23;100.00;97122.94;1031981;28;20095;-82
2021/11/18 08:04:47;;;;;;;17.38;12.18;;;;;;;4.33;100.00;97121.81;1029333;28;20263;-83
2021/11/18 08:05:18;;;;;;;17.30;11.77;;;;;;;4.28;100.00;97121.56;1031647;28;20127;-78
2021/11/18 08:05:49;;;;;;;19.95;11.48;;;;;;;4.17;100.00;97117.69;1028627;28;20011;-82
2021/11/18 08:06:26;;;;;;;17.88;11.43;;;;;;;3.68;100.00;97050.97;1023243;29;20008;-82
2021/11/18 08:07:03;;;;;;;20.67;12.45;;;;;;;4.04;100.00;97105.41;1027184;28;20314;-82
2021/11/18 08:07:33;;;;;;;18.08;12.73;;;;;;;3.84;100.00;97063.69;1027645;28;20307;-82
2021/11/18 08:08:04;;;;;;;19.50;13.65;;;;;;;3.93;100.00;97080.75;1030413;28;20321;-81
2021/11/18 08:08:35;;;;;;;17.35;12.00;;;;;;;4.14;100.00;97116.28;1032313;28;20022;-81
2021/11/18 08:09:06;;;;;;;22.15;12.23;;;;;;;4.15;100.00;97115.28;1032351;28;20113;-81
2021/11/18 08:09:36;;;;;;;18.10;12.40;;;;;;;4.23;100.00;97116.94;1026370;28;20063;-81
2021/11/18 08:10:07;;;;;;;22.15;12.88;;;;;;;4.01;100.00;97066.81;1026865;28;20038;-81
2021/11/18 08:10:39;;;;;;;21.55;12.43;;;;;;;3.89;100.00;97058.75;1030573;28;20038;-81
2021/11/18 08:11:12;;;;;;;20.00;12.45;;;;;;;3.96;100.00;97059.59;1029799;28;20379;-82
2021/11/18 08:11:50;;;;;;;18.38;12.70;;;;;;;4.36;100.00;97119.66;1029782;28;20843;-81
2021/11/18 08:12:21;;;;;;;17.88;13.10;;;;;;;4.10;100.00;97054.50;1027272;28;20358;-81
2021/11/18 08:12:52;;;;;;;19.90;11.98;;;;;;;4.45;100.00;97115.09;1025695;28;20290;-82
2021/11/18 08:13:23;;;;;;;15.25;11.23;;;;;;;4.47;100.00;97118.31;1026051;28;20027;-81
2021/11/18 08:13:53;;;;;;;17.63;12.40;;;;;;;4.19;100.00;97085.34;1033962;28;20018;-82
2021/11/18 08:14:24;;;;;;;15.40;10.98;;;;;;;4.29;100.00;97084.19;1035933;28;20771;-82
2021/11/18 08:14:55;;;;;;;20.55;11.95;;;;;;;4.63;100.00;97117.25;1029173;28;20019;-82
2021/11/18 08:15:26;;;;;;;16.98;11.98;;;;;;;4.53;100.00;97099.38;1023587;28;20292;-81
2021/11/18 08:15:57;;;;;;;23.10;12.02;;;;;;;4.37;100.00;97084.88;1024849;28;20023;-81
2021/11/18 08:16:28;;;;;;;16.50;12.15;;;;;;;4.13;100.00;97061.94;1026439;28;20522;-81
2021/11/18 08:16:59;;;;;;;18.33;11.90;;;;;;;4.02;100.00;97050.22;1033879;28;20053;-81
2021/11/18 08:17:29;;;;;;;17.48;12.07;;;;;;;4.53;100.00;97112.38;1037144;28;20045;-81
2021/11/18 08:18:00;;;;;;;16.58;10.95;;;;;;;4.56;100.00;97113.78;1039295;28;20025;-81
2021/11/18 08:18:31;;;;;;;15.82;11.80;;;;;;;4.38;100.00;97112.47;1033401;28;20697;-81
2021/11/18 08:19:03;;;;;;;17.27;11.88;;;;;;;4.11;100.00;97062.09;1029330;28;20109;-82
2021/11/18 08:19:34;;;;;;;19.80;12.98;;;;;;;4.04;100.00;97057.84;1029190;28;20281;-81
2021/11/18 08:20:05;;;;;;;16.45;11.75;;;;;;;4.11;100.00;97072.50;1033859;28;20280;-82
2021/11/18 08:20:36;;;;;;;18.77;12.55;;;;;;;4.55;100.00;97128.56;1030112;28;20023;-78
2021/11/18 08:21:07;;;;;;;23.42;13.02;;;;;;;4.06;100.00;97061.03;1026803;29;20267;-81
2021/11/18 08:21:38;;;;;;;17.10;11.68;;;;;;;4.59;100.00;97123.78;1018713;29;20032;-79
2021/11/18 08:22:09;;;;;;;20.20;12.57;;;;;;;4.55;100.00;97130.38;1027387;28;20061;-82
2021/11/18 08:22:40;;;;;;;19.13;12.70;;;;;;;4.38;100.00;97104.66;1027838;28;20270;-79
2021/11/18 08:23:11;;;;;;;18.33;12.15;;;;;;;4.29;100.00;97085.00;1021154;29;20267;-82
2021/11/18 08:23:41;;;;;;;16.30;11.60;;;;;;;4.54;100.00;97126.97;1021603;29;20771;-79
2021/11/18 08:24:13;;;;;;;35.85;13.05;;;;;;;4.23;100.00;97096.97;1025734;29;20021;-80
2021/11/18 08:24:44;;;;;;;23.10;12.07;;;;;;;4.19;100.00;97077.56;1021773;29;20031;-79
2021/11/18 08:25:15;;;;;;;16.83;11.43;;;;;;;4.42;100.00;97108.47;1025368;29;20295;-80
2021/11/18 08:25:45;;;;;;;16.65;12.00;;;;;;;4.08;100.00;97059.88;1029077;28;20030;-81
2021/11/18 08:26:16;;;;;;;17.80;11.95;;;;;;;4.12;100.00;97075.88;1033699;28;20769;-81
2021/11/18 08:26:46;;;;;;;18.15;11.70;;;;;;;4.35;100.00;97123.22;1026059;28;20138;-83
2021/11/18 08:27:17;;;;;;;17.35;11.48;;;;;;;4.29;100.00;97118.78;1031252;28;20091;-82
2021/11/18 08:27:48;;;;;;;22.50;12.48;;;;;;;4.28;100.00;97114.56;1025954;28;20146;-81
2021/11/18 08:28:18;;;;;;;16.48;11.70;;;;;;;4.42;100.00;97126.66;1017749;29;20027;-81
2021/11/18 08:28:49;;;;;;;18.13;11.95;;;;;;;3.96;100.00;97051.00;1025233;29;20023;-79
2021/11/18 08:29:22;;;;;;;20.70;13.05;;;;;;;4.45;100.00;97121.09;1025652;28;20040;-79
2021/11/18 08:29:52;;;;;;;17.00;12.48;;;;;;;4.10;100.00;97077.88;1028636;28;20122;-79
2021/11/18 08:30:28;;;;;;;16.90;12.15;;;;;;;4.18;100.00;97085.53;1029551;28;20317;-81
2021/11/18 08:31:01;;;;;;;19.63;12.55;;;;;;;3.92;100.00;97053.19;1031153;28;20266;-79
2021/11/18 08:31:31;;;;;;;18.15;12.98;;;;;;;4.03;100.00;97069.25;1035858;28;20253;-80
2021/11/18 08:32:03;;;;;;;19.38;12.45;;;;;;;4.11;100.00;97085.47;1043386;28;20314;-80
2021/11/18 08:32:34;;;;;;;18.38;12.40;;;;;;;4.05;100.00;97077.63;1036624;28;20125;-81
2021/11/18 08:33:05;;;;;;;18.00;12.40;;;;;;;4.06;100.00;97058.44;1027385;28;20404;-83
2021/11/18 08:33:36;;;;;;;16.10;12.35;;;;;;;4.21;100.00;97085.94;1029434;28;20258;-81
2021/11/18 08:34:07;;;;;;;17.30;12.45;;;;;;;4.17;100.00;97073.53;1027422;28;20274;-82
2021/11/18 08:34:38;;;;;;;17.25;11.55;;;;;;;4.07;100.00;97078.25;1018912;29;20452;-82
2021/11/18 08:35:09;;;;;;;18.50;12.73;;;;;;;4.35;100.00;97115.44;1025468;28;20263;-79
2021/11/18 08:35:40;;;;;;;19.42;12.60;;;;;;;4.25;100.00;97107.97;1030231;28;20313;-82
2021/11/18 08:36:10;;;;;;;16.98;12.27;;;;;;;3.98;100.00;97068.00;1028522;28;20275;-79
2021/11/18 08:36:41;;;;;;;18.70;12.00;;;;;;;4.26;100.00;97111.38;1025720;29;20091;-81
2021/11/18 08:37:12;;;;;;;20.42;12.57;;;;;;;4.34;100.00;97121.63;1025721;28;20016;-81
2021/11/18 08:37:43;;;;;;;17.60;12.30;;;;;;;4.38;100.00;97132.44;1023830;29;20330;-80
2021/11/18 08:38:18;;;;;;;17.98;11.90;;;;;;;4.38;100.00;97130.66;1028888;28;20564;-79
2021/11/18 08:38:48;;;;;;;16.27;11.98;;;;;;;4.10;100.00;97083.09;1031505;28;20254;-79
2021/11/18 08:39:20;;;;;;;18.45;12.65;;;;;;;4.01;100.00;97072.00;1034005;28;20262;-82
2021/11/18 08:39:51;;;;;;;18.05;12.77;;;;;;;4.38;100.00;97125.44;1037025;28;20009;-81
2021/11/18 08:40:22;;;;;;;17.00;12.13;;;;;;;4.08;100.00;97069.47;1028318;28;20262;-81
2021/11/18 08:40:54;;;;;;;19.45;13.05;;;;;;;4.09;100.00;97074.50;1028794;28;20027;-81
2021/11/18 08:41:33;;;;;;;16.85;11.90;;;;;;;4.13;100.00;97077.50;1025281;29;20383;-81
2021/11/18 08:42:06;;;;;;;18.02;12.40;;;;;;;4.36;100.00;97126.63;1021522;29;20019;-79
2021/11/18 08:42:37;;;;;;;22.95;13.38;;;;;;;4.41;100.00;97138.06;1024057;29;20258;-82
2021/11/18 08:43:08;;;;;;;18.13;11.75;;;;;;;4.47;100.00;97128.72;1024780;28;20351;-79
2021/11/18 08:43:42;;;;;;;17.75;12.75;;;;;;;4.11;100.00;97087.28;1036294;28;20014;-81
2021/11/18 08:44:12;;;;;;;17.70;12.15;;;;;;;4.33;100.00;97112.22;1034043;28;20696;-82
2021/11/18 08:44:43;;;;;;;19.48;12.55;;;;;;;4.15;100.00;97084.09;1034010;28;20571;-80
2021/11/18 08:45:31;;;;;;;17.13;12.20;;;;;;;4.16;100.00;97070.16;1028330;28;20533;-80
2021/11/18 08:46:02;;;;;;;16.48;11.32;;;;;;;4.49;100.00;97131.91;1031903;28;20310;-79
2021/11/18 08:46:35;;;;;;;17.88;11.98;;;;;;;4.42;100.00;97131.06;1030868;28;20272;-79
2021/11/18 08:47:07;;;;;;;19.95;13.35;;;;;;;4.53;100.00;97127.13;1035567;28;20265;-81
2021/11/18 08:47:38;;;;;;;17.55;11.93;;;;;;;4.23;100.00;97086.59;1029739;28;20262;-80
2021/11/18 08:48:08;;;;;;;19.50;13.23;;;;;;;4.29;100.00;97095.41;1022485;29;20344;-80
2021/11/18 08:48:39;;;;;;;18.20;12.38;;;;;;;4.19;100.00;97068.94;1022871;29;20109;-79
2021/11/18 08:49:10;;;;;;;17.45;12.57;;;;;;;4.15;100.00;97058.13;1028229;28;20030;-79
2021/11/18 08:49:41;;;;;;;18.98;12.80;;;;;;;4.34;100.00;97087.06;1033896;28;20030;-79
2021/11/18 08:50:14;;;;;;;19.13;12.77;;;;;;;4.31;100.00;97075.22;1029357;28;20018;-81
2021/11/18 08:50:46;;;;;;;17.02;12.82;;;;;;;4.65;100.00;97133.44;1019039;29;20248;-79
2021/11/18 08:51:19;;;;;;;19.90;13.02;;;;;;;4.44;100.00;97103.91;1014006;29;20268;-79
2021/11/18 08:51:50;;;;;;;16.63;12.05;;;;;;;4.29;100.00;97085.00;1030681;28;20269;-79
2021/11/18 08:52:23;;;;;;;18.88;12.95;;;;;;;4.42;100.00;97084.28;1032547;28;20487;-79
2021/11/18 08:52:54;;;;;;;17.65;12.45;;;;;;;3.99;100.00;97033.25;1031900;28;20262;-82
2021/11/18 08:53:30;;;;;;;19.13;12.10;;;;;;;4.73;100.00;97136.69;1028815;28;20254;-79
2021/11/18 08:54:03;;;;;;;18.02;12.30;;;;;;;4.69;100.00;97122.47;1027198;28;20270;-81
2021/11/18 08:54:37;;;;;;;18.75;12.50;;;;;;;4.73;100.00;97120.31;1020401;29;20270;-81
2021/11/18 08:55:12;;;;;;;17.42;12.68;;;;;;;4.69;100.00;97109.47;1024889;28;20400;-81
2021/11/18 08:55:43;;;;;;;15.95;11.70;;;;;;;4.54;100.00;97071.59;1026154;28;20365;-83
2021/11/18 08:56:14;;;;;;;16.77;12.65;;;;;;;4.57;100.00;97092.00;1028479;28;20262;-78
2021/11/18 08:56:45;;;;;;;18.75;13.30;;;;;;;4.45;100.00;97091.72;1026877;28;20360;-78
2021/11/18 08:57:16;;;;;;;15.40;11.73;;;;;;;4.75;100.00;97120.09;1022818;29;20426;-78
2021/11/18 08:57:47;;;;;;;16.50;11.75;;;;;;;4.80;100.00;97128.94;1026530;28;20281;-77
2021/11/18 08:58:20;;;;;;;21.80;12.55;;;;;;;4.81;100.00;97124.53;1027788;28;20015;-80
2021/11/18 08:58:55;;;;;;;16.23;11.23;;;;;;;4.84;100.00;97124.97;1037204;28;20052;-80
2021/11/18 08:59:25;;;;;;;15.90;11.15;;;;;;;4.87;100.00;97114.16;1038001;28;20896;-80
2021/11/18 08:59:56;;;;;;;16.35;12.05;;;;;;;4.72;100.00;97105.69;1033381;28;20262;-80
2021/11/18 09:00:30;;;;;;;17.20;12.48;;;;;;;4.75;100.00;97102.69;1029560;28;20453;-79
2021/11/18 09:01:09;;;;;;;15.45;11.70;;;;;;;4.52;100.00;97076.16;1017518;29;20032;-79
2021/11/18 09:01:43;;;;;;;15.95;11.70;;;;;;;4.70;100.00;97112.88;1020938;29;20282;-79
2021/11/18 09:02:18;;;;;;;18.00;12.55;;;;;;;4.67;100.00;97108.06;1027842;28;20640;-81
2021/11/18 09:02:49;;;;;;;16.92;12.38;;;;;;;4.76;100.00;97119.88;1027772;28;20255;-81
2021/11/18 09:03:20;;;;;;;17.25;11.80;;;;;;;4.49;100.00;97082.53;1027679;28;20266;-81
2021/11/18 09:03:51;;;;;;;16.75;12.13;;;;;;;4.81;100.00;97121.94;1030827;28;20018;-81
2021/11/18 09:04:25;;;;;;;18.35;11.73;;;;;;;4.78;100.00;97115.31;1030834;28;20297;-80
2021/11/18 09:04:55;;;;;;;17.98;12.38;;;;;;;4.38;100.00;97078.69;1037669;28;21106;-82
2021/11/18 09:05:27;;;;;;;16.55;11.35;;;;;;;4.67;100.00;97108.06;1035497;28;20081;-82
2021/11/18 09:05:57;;;;;;;17.20;11.10;;;;;;;4.80;100.00;97105.53;1033684;28;20398;-81
2021/11/18 09:06:28;;;;;;;20.15;12.75;;;;;;;4.69;100.00;97100.84;1041214;28;20276;-81
2021/11/18 09:06:59;;;;;;;14.55;11.52;;;;;;;4.54;100.00;97066.38;1035359;28;20014;-80
2021/11/18 09:07:29;;;;;;;17.33;12.15;;;;;;;4.85;100.00;97123.16;1030711;28;20021;-79
2021/11/18 09:08:00;;;;;;;16.13;11.90;;;;;;;4.95;100.00;97116.59;1035478;28;20019;-79
2021/11/18 09:08:31;;;;;;;14.68;10.93;;;;;;;4.86;100.00;97096.97;1035479;28;20026;-79
2021/11/18 09:09:03;;;;;;;15.75;11.52;;;;;;;4.57;100.00;97061.59;1039337;28;20018;-82
2021/11/18 09:09:34;;;;;;;16.67;12.02;;;;;;;4.83;100.00;97107.75;1036890;28;20321;-81
2021/11/18 09:10:05;;;;;;;18.40;11.70;;;;;;;4.83;100.00;97122.53;1026989;28;20310;-81
2021/11/18 09:10:36;;;;;;;16.20;11.30;;;;;;;4.76;100.00;97091.28;1030431;28;20026;-81
2021/11/18 09:11:09;;;;;;;16.48;12.27;;;;;;;4.54;100.00;97079.38;1033449;28;20272;-79
2021/11/18 09:11:40;;;;;;;18.33;11.52;;;;;;;4.45;100.00;97074.31;1034416;28;20513;-80
2021/11/18 09:12:10;;;;;;;14.50;10.98;;;;;;;4.83;100.00;97128.56;1041802;28;20280;-79
2021/11/18 09:12:44;;;;;;;15.63;11.48;;;;;;;4.51;100.00;97071.97;1028964;28;20118;-79
2021/11/18 09:13:15;;;;;;;20.00;12.65;;;;;;;4.85;100.00;97121.34;1023275;29;20421;-79
2021/11/18 09:13:45;;;;;;;15.65;11.43;;;;;;;4.88;100.00;97135.78;1028105;28;20270;-79
2021/11/18 09:14:16;;;;;;;15.18;11.05;;;;;;;4.51;100.00;97079.75;1034417;28;20265;-79
2021/11/18 09:14:48;;;;;;;18.02;13.00;;;;;;;4.53;100.00;97062.16;1034698;28;20093;-79
2021/11/18 09:15:20;;;;;;;15.75;12.38;;;;;;;4.84;100.00;97113.75;1038156;28;20025;-79
2021/11/18 09:15:50;;;;;;;18.70;11.52;;;;;;;5.01;100.00;97132.44;1034421;28;20261;-79
2021/11/18 09:16:22;;;;;;;15.20;11.85;;;;;;;5.04;100.00;97139.88;1031091;28;20259;-79
2021/11/18 09:16:54;;;;;;;17.80;11.23;;;;;;;4.89;100.00;97125.16;1030901;28;20101;-79
2021/11/18 09:17:26;;;;;;;16.35;11.55;;;;;;;4.70;100.00;97089.47;1034880;28;20763;-80
2021/11/18 09:17:58;;;;;;;15.38;11.57;;;;;;;5.07;100.00;97139.50;1036080;28;20312;-80
2021/11/18 09:18:29;;;;;;;18.13;12.25;;;;;;;5.00;100.00;97142.06;1035136;28;20262;-79
2021/11/18 09:19:01;;;;;;;15.50;11.23;;;;;;;4.60;100.00;97086.44;1039388;28;20304;-79
2021/11/18 09:19:33;;;;;;;14.63;11.05;;;;;;;4.69;100.00;97106.06;1029237;28;20496;-80
2021/11/18 09:20:05;;;;;;;16.55;11.82;;;;;;;4.52;100.00;97089.94;1027541;28;20259;-79
2021/11/18 09:20:36;;;;;;;20.25;12.13;;;;;;;4.70;100.00;97105.09;1034907;28;20253;-81
2021/11/18 09:21:08;;;;;;;16.63;11.73;;;;;;;5.00;100.00;97136.84;1035172;28;20261;-81
2021/11/18 09:21:40;;;;;;;16.48;11.43;;;;;;;4.69;100.00;97096.47;1037951;28;20044;-79
2021/11/18 09:22:11;;;;;;;16.48;11.35;;;;;;;5.00;100.00;97147.25;1035006;28;20269;-80
2021/11/18 09:22:43;;;;;;;14.18;10.38;;;;;;;4.91;100.00;97123.19;1030513;28;20286;-79
2021/11/18 09:23:14;;;;;;;14.70;11.25;;;;;;;5.04;100.00;97148.47;1026587;29;20259;-79
2021/11/18 09:23:48;;;;;;;20.10;12.52;;;;;;;5.10;100.00;97149.50;1038546;28;20331;-78
2021/11/18 09:24:30;;;;;;;24.02;12.60;;;;;;;5.19;100.00;97138.72;1038134;28;20292;-79
2021/11/18 09:25:02;;;;;;;16.80;12.23;;;;;;;5.23;100.00;97153.94;1035150;28;20278;-82
2021/11/18 09:25:36;;;;;;;15.75;10.80;;;;;;;5.02;100.00;97128.84;1027821;28;20255;-80
2021/11/18 09:26:07;;;;;;;14.10;10.93;;;;;;;5.23;100.00;97153.94;1022755;29;20327;-79
2021/11/18 09:26:44;;;;;;;18.63;11.45;;;;;;;4.90;100.00;97110.38;1022440;29;20268;-80
2021/11/18 09:27:18;;;;;;;25.63;11.80;;;;;;;5.26;100.00;97156.16;1026544;29;20034;-79
2021/11/18 09:27:50;;;;;;;14.93;10.98;;;;;;;5.05;100.00;97126.66;1022254;29;20307;-79
2021/11/18 09:28:22;;;;;;;14.30;10.75;;;;;;;5.28;100.00;97157.59;1021769;29;20244;-79
2021/11/18 09:28:52;;;;;;;17.10;11.27;;;;;;;4.89;100.00;97106.16;1023238;28;20323;-80
2021/11/18 09:29:23;;;;;;;14.70;11.27;;;;;;;4.96;100.00;97118.22;1030730;28;20255;-79
2021/11/18 09:29:54;;;;;;;15.93;10.95;;;;;;;5.16;100.00;97149.53;1034116;28;20033;-79
2021/11/18 09:30:33;;;;;;;15.70;10.73;;;;;;;4.99;100.00;97106.63;1029868;28;20459;-79
2021/11/18 09:31:05;;;;;;;15.98;11.48;;;;;;;5.18;100.00;97142.31;1029464;28;20015;-79
2021/11/18 09:31:35;;;;;;;14.52;10.95;;;;;;;5.01;100.00;97114.25;1030451;28;20696;-80
2021/11/18 09:32:06;;;;;;;17.00;10.80;;;;;;;4.96;100.00;97115.63;1031526;28;20266;-82
2021/11/18 09:32:37;;;;;;;15.38;10.75;;;;;;;5.40;100.00;97156.06;1034369;28;20018;-80
2021/11/18 09:33:08;;;;;;;15.88;11.50;;;;;;;5.44;100.00;97159.06;1041695;28;20272;-79
2021/11/18 09:33:39;;;;;;;16.42;11.15;;;;;;;5.28;100.00;97128.97;1040149;28;20025;-80
2021/11/18 09:34:10;;;;;;;12.85;10.07;;;;;;;5.06;100.00;97094.44;1025926;28;20069;-80
2021/11/18 09:34:40;;;;;;;13.15;10.07;;;;;;;5.05;100.00;97099.84;1025428;28;20648;-79
2021/11/18 09:35:13;;;;;;;15.82;10.65;;;;;;;5.41;100.00;97157.66;1028412;28;20023;-80
2021/11/18 09:35:48;;;;;;;15.57;10.88;;;;;;;5.27;100.00;97145.59;1023035;28;20255;-79
2021/11/18 09:36:20;;;;;;;13.77;10.90;;;;;;;5.00;100.00;97103.03;1029619;28;20273;-79
2021/11/18 09:36:50;;;;;;;14.65;11.32;;;;;;;5.23;100.00;97117.53;1026719;28;20263;-81
2021/11/18 09:37:21;;;;;;;14.18;10.15;;;;;;;5.50;100.00;97154.84;1030264;28;20282;-79
2021/11/18 09:37:51;;;;;;;16.38;11.23;;;;;;;5.28;100.00;97108.16;1023507;28;20574;-79
2021/11/18 09:38:24;;;;;;;15.02;10.82;;;;;;;5.63;100.00;97147.91;1028880;28;20078;-79
2021/11/18 09:38:56;;;;;;;14.30;11.38;;;;;;;5.41;100.00;97108.19;1025992;29;20026;-79
2021/11/18 09:39:27;;;;;;;15.43;11.20;;;;;;;5.23;100.00;97092.31;1029666;28;20250;-78
2021/11/18 09:39:57;;;;;;;18.38;11.77;;;;;;;5.35;100.00;97095.94;1035601;28;20289;-81
2021/11/18 09:40:35;;;;;;;22.38;12.02;;;;;;;5.70;100.00;97150.53;1033640;28;20554;-79
2021/11/18 09:41:27;;;;;;;15.35;10.60;;;;;;;5.59;100.00;97144.09;1025517;29;20026;-79
2021/11/18 09:42:06;;;;;;;19.33;11.75;;;;;;;5.38;100.00;97095.56;1032785;28;20245;-79
2021/11/18 09:43:05;;;;;;;12.10;9.82;;;;;;;5.38;100.00;97105.97;1037418;28;20374;-79
2021/11/18 09:43:54;;;;;;;15.00;10.18;;;;;;;5.73;100.00;97146.72;1015294;29;20268;-80
2021/11/18 09:44:46;;;;;;;14.80;10.50;;;;;;;5.89;100.00;97151.56;1020821;28;20265;-80
2021/11/18 09:45:22;;;;;;;16.92;10.25;;;;;;;5.45;100.00;97092.97;1034559;28;20558;-79
2021/11/18 09:46:20;;;;;;;17.10;10.20;;;;;;;5.75;100.00;97150.75;1030053;28;20293;-82
2021/11/18 09:47:18;;;;;;;15.40;10.70;;;;;;;5.70;100.00;97150.53;1025511;28;20623;-79
2021/11/18 09:48:20;;;;;;;12.77;9.82;;;;;;;5.74;100.00;97154.34;1035633;28;20324;-80
2021/11/18 09:49:18;;;;;;;21.10;11.30;;;;;;;5.75;100.00;97147.34;1037456;28;20245;-81
2021/11/18 09:50:07;;;;;;;14.38;10.38;;;;;;;5.54;100.00;97150.91;1037387;28;20229;-79
2021/11/18 09:50:56;;;;;;;15.35;10.95;;;;;;;5.45;100.00;97152.84;1037845;28;20750;-79
2021/11/18 09:51:59;;;;;;;14.23;10.25;;;;;;;5.21;100.00;97089.09;1033720;28;20278;-80
2021/11/18 09:52:41;;;;;;;14.77;10.38;;;;;;;5.63;100.00;97149.69;1035984;28;20382;-79
2021/11/18 09:53:31;;;;;;;19.85;10.93;;;;;;;5.71;100.00;97151.34;1045273;28;20275;-79
2021/11/18 09:54:22;;;;;;;14.70;10.43;;;;;;;5.73;100.00;97157.13;1046225;28;20259;-79
2021/11/18 09:55:04;;;;;;;14.20;10.30;;;;;;;5.78;100.00;97154.75;1037481;28;20276;-79
2021/11/18 09:55:37;;;;;;;14.73;10.55;;;;;;;5.78;100.00;97157.38;1029753;28;20262;-79